Bostic, North Carolina
Current Conditions -  °F | °C
As of 1:15 AM on Tuesday 21 Oct 2014 (Local Time) from KFQD Reporting Station
Overcast Overcast  
Wind Chill: 52°   Ceiling: 9000
Heat Index: 52°   Visibility: 7mi
Dew Point: 51°   Wind: 3mph
Humidity: 99%   Direction: 330°NNW
Pressure: 29.99"   Gusts: NA
Location:  35.36°N, 81.84°W
Report Text: KFQD 210515Z AUTO 33003KT 7SM OVC090 11/11 A2999 RMK AO2 LTG DSNT NW T01100108
Loading
Personal Weather Stations






























Interactive Weather Map
Tropical Storm Tracking
New forecast layout! Learn more

10-Day Weather Forecast

Advertisements
Track Severe Weather on mobile